Time;durP1;ratioP1;P1;durP2;ratioP2;P2;SDS_P1;SDS_P2;PMS_P1;PMS_P2;Temp;Humidity;BMP_temperature;BMP_pressure;BME280_temperature;BME280_humidity;BME280_pressure;Samples;Min_cycle;Max_cycle;Signal;HPM_P1;HPM_P2
2021/09/08 00:00:28;;;;;;;4.10;1.35;;;;;;;17.87;100.00;100030.72;5057376;28;20051;-75
2021/09/08 00:03:32;;;;;;;12.50;1.70;;;;;;;17.86;100.00;100023.56;5072827;28;20051;-75
2021/09/08 00:06:35;;;;;;;2.75;1.20;;;;;;;17.88;100.00;100024.59;5072896;28;20051;-76
2021/09/08 00:09:37;;;;;;;2.45;1.52;;;;;;;17.83;100.00;100019.75;5073170;28;20047;-75
2021/09/08 00:12:40;;;;;;;2.85;1.38;;;;;;;17.88;100.00;100023.81;5072811;28;20517;-75
2021/09/08 00:15:44;;;;;;;4.13;2.00;;;;;;;17.79;100.00;100018.50;5072413;28;20051;-78
2021/09/08 00:18:47;;;;;;;4.15;1.48;;;;;;;17.69;100.00;100018.03;5072859;28;20075;-77
2021/09/08 00:21:50;;;;;;;5.22;1.77;;;;;;;17.61;100.00;100019.09;5072821;28;20460;-76
2021/09/08 00:24:53;;;;;;;3.88;1.92;;;;;;;17.57;100.00;100022.19;5072810;28;20044;-76
2021/09/08 00:27:56;;;;;;;5.63;2.30;;;;;;;17.60;100.00;100012.72;5072827;28;20457;-75
2021/09/08 00:30:59;;;;;;;4.07;1.70;;;;;;;17.65;100.00;100006.25;5072634;28;20226;-76
2021/09/08 00:34:01;;;;;;;4.65;1.60;;;;;;;17.52;100.00;100003.25;5072406;28;20055;-76
2021/09/08 00:37:04;;;;;;;4.50;1.02;;;;;;;17.56;100.00;100000.19;5072413;28;20533;-76
2021/09/08 00:40:08;;;;;;;5.78;2.53;;;;;;;17.50;100.00;99997.38;5071837;28;20047;-76
2021/09/08 00:43:11;;;;;;;1.42;1.25;;;;;;;17.52;100.00;99994.06;5072492;28;20048;-75
2021/09/08 00:46:14;;;;;;;5.85;1.65;;;;;;;17.44;100.00;99999.44;5072477;28;20414;-76
2021/09/08 00:49:17;;;;;;;4.85;2.75;;;;;;;17.45;100.00;99995.34;5063035;28;20064;-76
2021/09/08 00:52:21;;;;;;;4.38;1.80;;;;;;;17.38;100.00;99995.91;5071391;28;20050;-76
2021/09/08 00:55:26;;;;;;;4.32;1.55;;;;;;;16.01;100.00;100001.22;5071036;28;20465;-76
2021/09/08 00:58:29;;;;;;;3.50;1.17;;;;;;;15.82;100.00;99995.34;5071445;28;20068;-76
2021/09/08 01:01:32;;;;;;;2.92;1.58;;;;;;;16.13;100.00;100004.81;5057256;28;20129;-75
2021/09/08 01:04:34;;;;;;;7.95;1.40;;;;;;;15.80;100.00;100002.75;5051631;28;20612;-75
2021/09/08 01:07:38;;;;;;;6.35;2.10;;;;;;;15.71;100.00;100000.16;5051663;28;20508;-75
2021/09/08 01:10:41;;;;;;;2.45;1.52;;;;;;;15.67;100.00;100006.03;5052035;28;20047;-75
2021/09/08 01:13:44;;;;;;;1.75;1.35;;;;;;;15.77;100.00;99998.13;5051746;28;20417;-76
2021/09/08 01:16:52;;;;;;;5.68;1.20;;;;;;;15.94;100.00;99996.88;5051870;28;20102;-76
2021/09/08 01:19:55;;;;;;;1.48;1.05;;;;;;;16.09;100.00;99996.63;5039400;28;20048;-76
2021/09/08 01:22:58;;;;;;;3.85;1.25;;;;;;;16.11;100.00;99993.34;5051848;28;20094;-76
2021/09/08 01:26:04;;;;;;;9.15;1.30;;;;;;;15.45;100.00;99989.13;5051659;28;20124;-76
2021/09/08 01:29:08;;;;;;;7.35;1.88;;;;;;;15.76;100.00;99997.38;5051860;28;20099;-76
2021/09/08 01:32:11;;;;;;;9.82;2.00;;;;;;;15.52;100.00;99987.88;5039148;28;20087;-76
2021/09/08 01:35:17;;;;;;;4.47;1.40;;;;;;;14.99;100.00;99989.44;5039552;28;20052;-76
2021/09/08 01:38:20;;;;;;;12.18;1.70;;;;;;;14.58;100.00;99988.16;5051092;28;20051;-75
2021/09/08 01:41:23;;;;;;;5.10;1.75;;;;;;;14.79;100.00;99983.97;5039036;28;20497;-76
2021/09/08 01:44:26;;;;;;;3.05;1.80;;;;;;;14.80;100.00;99979.91;5051049;28;20075;-76
2021/09/08 01:47:29;;;;;;;14.52;2.10;;;;;;;14.78;100.00;99979.63;5051162;28;20056;-76
2021/09/08 01:50:32;;;;;;;6.85;2.30;;;;;;;14.94;100.00;99984.53;5050945;28;20525;-76
2021/09/08 01:53:35;;;;;;;3.95;1.27;;;;;;;14.76;100.00;99978.59;5050648;28;20083;-76
2021/09/08 01:56:38;;;;;;;7.10;2.00;;;;;;;14.87;100.00;99973.06;5049913;28;20060;-76
2021/09/08 01:59:41;;;;;;;5.63;1.95;;;;;;;14.72;100.00;99967.63;5050969;28;20060;-75
2021/09/08 02:02:45;;;;;;;3.88;2.28;;;;;;;14.94;100.00;99962.09;5048989;28;20136;-76
2021/09/08 02:05:47;;;;;;;4.18;1.23;;;;;;;14.53;100.00;99960.13;5036142;28;20098;-76
2021/09/08 02:08:58;;;;;;;7.80;2.67;;;;;;;14.41;100.00;99956.47;5048971;28;20052;-76
2021/09/08 02:12:01;;;;;;;7.17;1.93;;;;;;;14.44;100.00;99952.69;5049209;28;20643;-76
2021/09/08 02:15:06;;;;;;;4.85;1.45;;;;;;;14.69;100.00;99946.19;5049186;28;20692;-76
2021/09/08 02:18:09;;;;;;;8.25;2.22;;;;;;;14.49;100.00;99939.97;5052654;28;20052;-76
2021/09/08 02:21:12;;;;;;;6.25;2.40;;;;;;;14.57;100.00;99944.59;5049809;28;20098;-76
2021/09/08 02:24:15;;;;;;;37.03;3.42;;;;;;;14.32;100.00;99937.03;5048657;28;20207;-76
2021/09/08 02:27:17;;;;;;;3.20;1.35;;;;;;;14.30;100.00;99936.78;5048747;28;20056;-76
2021/09/08 02:30:20;;;;;;;5.35;2.33;;;;;;;14.22;100.00;99939.25;5036165;28;20255;-76
2021/09/08 02:33:23;;;;;;;8.50;2.72;;;;;;;14.48;100.00;99936.41;5047961;28;20095;-76
2021/09/08 02:36:26;;;;;;;2.70;1.20;;;;;;;14.22;100.00;99930.09;5048157;28;20403;-76
2021/09/08 02:39:30;;;;;;;4.85;2.20;;;;;;;14.04;100.00;99925.63;5048614;28;20099;-75
2021/09/08 02:42:33;;;;;;;2.92;1.70;;;;;;;14.01;100.00;99934.25;5048469;28;20047;-75
2021/09/08 02:45:36;;;;;;;5.13;1.95;;;;;;;13.88;100.00;99931.84;5048605;28;20191;-76
2021/09/08 02:48:39;;;;;;;6.05;1.48;;;;;;;13.82;100.00;99930.28;5048082;28;20475;-76
2021/09/08 02:51:42;;;;;;;8.85;2.40;;;;;;;13.81;100.00;99928.72;5048272;28;20102;-76
2021/09/08 02:54:45;;;;;;;2.75;1.23;;;;;;;13.81;100.00;99929.50;5048423;28;20060;-76
2021/09/08 02:57:48;;;;;;;3.40;1.45;;;;;;;13.82;100.00;99919.09;5047941;28;20457;-76
2021/09/08 03:00:51;;;;;;;9.25;2.67;;;;;;;14.41;100.00;99911.63;5056895;28;20448;-75
2021/09/08 03:03:54;;;;;;;2.20;1.15;;;;;;;14.40;100.00;99908.06;5070341;28;20110;-75
2021/09/08 03:06:58;;;;;;;8.15;2.78;;;;;;;14.30;100.00;99911.56;5072067;28;20127;-76
2021/09/08 03:10:02;;;;;;;4.85;1.80;;;;;;;14.15;100.00;99902.53;5072340;28;20541;-76
2021/09/08 03:13:06;;;;;;;5.80;2.00;;;;;;;13.97;100.00;99902.91;5071742;28;20059;-76
2021/09/08 03:16:09;;;;;;;6.07;1.92;;;;;;;13.86;100.00;99897.22;5071933;28;20118;-76
2021/09/08 03:19:12;;;;;;;6.00;1.92;;;;;;;13.84;100.00;99905.34;5071859;28;20051;-75
2021/09/08 03:22:15;;;;;;;4.07;2.38;;;;;;;14.16;100.00;99892.88;5071691;28;20055;-76
2021/09/08 03:25:17;;;;;;;2.90;1.65;;;;;;;14.20;100.00;99885.00;5071881;28;20059;-76
2021/09/08 03:28:20;;;;;;;4.20;1.50;;;;;;;14.18;100.00;99890.34;5062716;28;20414;-75
2021/09/08 03:31:23;;;;;;;6.35;3.08;;;;;;;14.22;100.00;99883.22;5042926;28;20110;-76
2021/09/08 03:34:26;;;;;;;3.00;2.05;;;;;;;14.23;100.00;99878.38;5038759;28;20055;-76
2021/09/08 03:37:29;;;;;;;9.45;2.03;;;;;;;14.17;100.00;99872.75;5051200;28;20052;-76
2021/09/08 03:40:32;;;;;;;3.53;1.48;;;;;;;14.13;100.00;99871.44;5051462;28;20052;-76
2021/09/08 03:43:34;;;;;;;6.20;1.40;;;;;;;14.11;100.00;99868.38;5051308;28;20056;-76
2021/09/08 03:46:37;;;;;;;5.78;2.03;;;;;;;14.67;100.00;99859.03;5051007;28;20051;-76
2021/09/08 03:49:45;;;;;;;5.50;1.77;;;;;;;14.75;100.00;99857.28;5038203;28;20060;-76
2021/09/08 03:52:50;;;;;;;5.15;1.30;;;;;;;14.83;100.00;99855.53;5039180;28;20079;-76
2021/09/08 03:55:53;;;;;;;4.22;1.85;;;;;;;14.90;100.00;99849.41;5051410;28;20095;-75
2021/09/08 03:58:56;;;;;;;8.00;1.95;;;;;;;15.10;100.00;99848.44;5051622;28;20130;-76
2021/09/08 04:01:59;;;;;;;2.88;1.73;;;;;;;15.01;100.00;99840.28;5058298;28;20524;-76
2021/09/08 04:05:02;;;;;;;5.60;1.83;;;;;;;14.98;100.00;99850.47;5073108;28;20516;-76
2021/09/08 04:08:05;;;;;;;7.50;2.78;;;;;;;14.94;100.00;99844.31;5073249;28;20157;-76
2021/09/08 04:11:08;;;;;;;3.10;1.40;;;;;;;14.88;100.00;99840.75;5086606;28;20409;-75
2021/09/08 04:14:11;;;;;;;2.92;1.15;;;;;;;14.90;100.00;99841.00;5075949;28;20411;-75
2021/09/08 04:17:13;;;;;;;2.75;1.50;;;;;;;14.88;100.00;99829.53;5073072;28;20517;-75
2021/09/08 04:20:16;;;;;;;5.50;1.58;;;;;;;14.80;100.00;99828.50;5072999;28;20047;-76
2021/09/08 04:23:19;;;;;;;3.38;1.80;;;;;;;14.73;100.00;99831.00;5072445;28;20048;-76
2021/09/08 04:26:23;;;;;;;9.02;2.17;;;;;;;14.71;100.00;99834.31;5072271;28;20047;-76
2021/09/08 04:29:26;;;;;;;2.97;1.60;;;;;;;14.80;100.00;99831.31;5072602;28;20123;-76
2021/09/08 04:32:29;;;;;;;5.75;2.22;;;;;;;14.76;100.00;99832.81;5072319;28;20079;-75
2021/09/08 04:35:31;;;;;;;10.32;2.92;;;;;;;14.78;100.00;99824.66;5072078;28;20099;-75
2021/09/08 04:38:35;;;;;;;3.05;1.30;;;;;;;14.90;100.00;99824.19;5072251;28;20066;-75
2021/09/08 04:41:38;;;;;;;4.10;2.25;;;;;;;14.87;100.00;99816.81;5072233;28;20059;-75
2021/09/08 04:44:42;;;;;;;5.18;2.25;;;;;;;14.75;100.00;99815.22;5072070;28;20059;-76
2021/09/08 04:47:45;;;;;;;4.10;1.65;;;;;;;14.71;100.00;99813.94;5059943;28;20132;-75
2021/09/08 04:50:48;;;;;;;9.38;3.33;;;;;;;14.68;100.00;99812.94;5072002;28;20051;-76
2021/09/08 04:53:51;;;;;;;4.60;1.67;;;;;;;14.81;100.00;99813.19;5072265;28;20173;-75
2021/09/08 04:56:53;;;;;;;5.57;2.28;;;;;;;14.68;100.00;99810.13;5072097;28;20048;-75
2021/09/08 04:59:56;;;;;;;6.75;2.47;;;;;;;14.82;100.00;99809.13;5071562;28;20135;-76
2021/09/08 05:02:59;;;;;;;6.18;2.53;;;;;;;14.78;100.00;99810.66;5069210;28;20120;-75
2021/09/08 05:06:02;;;;;;;6.57;1.42;;;;;;;14.65;100.00;99804.75;5071684;28;20174;-75
2021/09/08 05:09:04;;;;;;;8.18;1.92;;;;;;;14.69;100.00;99811.63;5059590;28;20506;-76
2021/09/08 05:12:10;;;;;;;5.57;1.10;;;;;;;14.66;100.00;99801.44;5072185;28;20044;-75
2021/09/08 05:15:13;;;;;;;7.95;1.90;;;;;;;14.70;100.00;99795.59;5059189;28;20067;-75
2021/09/08 05:18:16;;;;;;;7.55;2.45;;;;;;;14.64;100.00;99794.81;5071879;28;20079;-76
2021/09/08 05:21:19;;;;;;;3.95;1.77;;;;;;;14.66;100.00;99790.22;5059197;28;20051;-76
2021/09/08 05:24:22;;;;;;;4.93;1.85;;;;;;;14.51;100.00;99784.06;5071330;28;20056;-78
2021/09/08 05:27:24;;;;;;;3.10;1.67;;;;;;;14.38;100.00;99792.91;5071124;28;20118;-77
2021/09/08 05:30:27;;;;;;;3.95;1.73;;;;;;;14.33;100.00;99796.50;5071419;28;20509;-77
2021/09/08 05:33:32;;;;;;;7.00;2.45;;;;;;;14.43;100.00;99795.00;5070964;28;20102;-78
2021/09/08 05:36:35;;;;;;;3.22;2.03;;;;;;;14.50;100.00;99792.97;5049182;28;20133;-77
2021/09/08 05:39:38;;;;;;;5.03;2.53;;;;;;;14.45;100.00;99788.88;5063822;28;20074;-78
2021/09/08 05:42:41;;;;;;;6.85;2.67;;;;;;;14.43;100.00;99795.00;5070141;28;20043;-78
2021/09/08 05:45:44;;;;;;;12.93;2.10;;;;;;;14.41;100.00;99791.16;5070597;28;20039;-77
2021/09/08 05:48:47;;;;;;;10.73;3.10;;;;;;;14.41;100.00;99788.34;5070493;28;20123;-77
2021/09/08 05:51:50;;;;;;;10.45;3.42;;;;;;;14.41;100.00;99794.72;5070724;28;20047;-76
2021/09/08 05:54:52;;;;;;;9.18;2.72;;;;;;;14.45;100.00;99797.28;5070597;28;20513;-76
2021/09/08 05:57:55;;;;;;;3.97;1.70;;;;;;;14.47;100.00;99789.13;5070276;28;20114;-77
2021/09/08 06:00:58;;;;;;;3.58;2.08;;;;;;;14.44;100.00;99785.31;5060916;28;20094;-76
2021/09/08 06:04:01;;;;;;;4.05;1.70;;;;;;;14.56;100.00;99780.50;5066819;28;20097;-76
2021/09/08 06:07:04;;;;;;;4.72;1.92;;;;;;;14.58;100.00;99783.56;5060811;28;20055;-77
2021/09/08 06:10:07;;;;;;;4.43;2.35;;;;;;;14.50;100.00;99774.13;5079152;28;20040;-76
2021/09/08 06:13:10;;;;;;;4.35;1.45;;;;;;;14.51;100.00;99770.03;5071104;28;20052;-76
2021/09/08 06:16:13;;;;;;;4.82;1.83;;;;;;;14.55;100.00;99772.63;5069406;28;20086;-76
2021/09/08 06:19:17;;;;;;;6.03;2.38;;;;;;;14.57;100.00;99773.66;5069131;28;20051;-76
2021/09/08 06:22:20;;;;;;;5.63;2.47;;;;;;;14.57;100.00;99767.28;5070383;28;20627;-76
2021/09/08 06:25:23;;;;;;;4.97;2.22;;;;;;;14.69;100.00;99766.00;5056797;28;20071;-76
2021/09/08 06:28:26;;;;;;;5.13;2.45;;;;;;;14.78;100.00;99769.38;5069746;28;20039;-76
2021/09/08 06:31:29;;;;;;;9.18;2.92;;;;;;;14.89;100.00;99775.00;5069903;28;20129;-76
2021/09/08 06:34:32;;;;;;;11.02;2.58;;;;;;;14.86;100.00;99778.81;5070109;28;20469;-76
2021/09/08 06:37:35;;;;;;;12.98;2.92;;;;;;;14.94;100.00;99765.81;5070445;28;20059;-75
2021/09/08 06:40:37;;;;;;;12.20;3.72;;;;;;;15.04;100.00;99760.72;5074040;28;20430;-76
2021/09/08 06:43:40;;;;;;;9.13;2.75;;;;;;;15.03;100.00;99768.38;5073385;28;20117;-75
2021/09/08 06:46:43;;;;;;;7.63;2.72;;;;;;;15.34;100.00;99763.78;5073726;28;20577;-75
2021/09/08 06:49:48;;;;;;;4.97;2.08;;;;;;;15.35;100.00;99759.72;5073837;28;20068;-76
2021/09/08 06:52:51;;;;;;;5.38;2.00;;;;;;;15.36;100.00;99761.25;5074139;28;20068;-75
2021/09/08 06:55:54;;;;;;;5.57;1.98;;;;;;;15.64;100.00;99764.81;5061479;28;20571;-77
2021/09/08 06:58:57;;;;;;;10.10;3.47;;;;;;;15.68;100.00;99754.13;5073957;28;20128;-76
2021/09/08 07:02:00;;;;;;;10.93;2.90;;;;;;;15.77;100.00;99756.63;5056293;28;20467;-75
2021/09/08 07:05:03;;;;;;;5.07;1.95;;;;;;;14.99;100.00;99755.88;5053504;28;20430;-76
2021/09/08 07:08:09;;;;;;;18.98;3.05;;;;;;;14.95;100.00;99756.13;5053624;28;20094;-76
2021/09/08 07:11:12;;;;;;;17.27;2.60;;;;;;;16.01;100.00;99751.22;5054782;28;20048;-76
2021/09/08 07:14:16;;;;;;;28.88;4.45;;;;;;;16.32;100.00;99739.63;5054431;28;20560;-77
2021/09/08 07:17:18;;;;;;;8.63;2.80;;;;;;;16.63;100.00;99730.78;5053844;28;20121;-74
2021/09/08 07:20:23;;;;;;;3.70;1.85;;;;;;;16.80;100.00;99732.72;5053932;28;20516;-75
2021/09/08 07:23:26;;;;;;;15.68;2.90;;;;;;;17.00;100.00;99721.09;5053643;28;20053;-76
2021/09/08 07:26:33;;;;;;;7.80;3.00;;;;;;;17.30;100.00;99731.06;5053625;28;20151;-76
2021/09/08 07:29:36;;;;;;;5.30;2.28;;;;;;;17.24;100.00;99724.72;5053515;28;20052;-75
2021/09/08 07:32:39;;;;;;;5.28;2.33;;;;;;;17.26;100.00;99724.22;5053516;28;20059;-76
2021/09/08 07:35:42;;;;;;;9.45;3.08;;;;;;;17.55;100.00;99731.91;5053556;28;20051;-75
2021/09/08 07:38:49;;;;;;;10.40;2.90;;;;;;;17.55;100.00;99731.91;5053775;28;20129;-76
2021/09/08 07:41:52;;;;;;;19.45;3.75;;;;;;;17.91;100.00;99730.47;5053902;28;20098;-76
2021/09/08 07:44:55;;;;;;;15.13;3.65;;;;;;;18.00;100.00;99729.34;5053729;28;20051;-76
2021/09/08 07:47:58;;;;;;;20.65;4.30;;;;;;;18.20;100.00;99720.41;5053560;28;20559;-76
2021/09/08 07:51:01;;;;;;;13.70;3.67;;;;;;;16.82;100.00;99735.78;5053110;28;20530;-76
2021/09/08 07:54:04;;;;;;;7.68;3.08;;;;;;;17.55;100.00;99739.56;5053544;28;20128;-77
2021/09/08 07:57:07;;;;;;;5.43;2.55;;;;;;;18.34;100.00;99729.72;5053202;28;20080;-76
2021/09/08 08:00:10;;;;;;;11.50;2.80;;;;;;;18.32;100.00;99735.16;5055889;28;20109;-76
2021/09/08 08:03:13;;;;;;;6.57;2.90;;;;;;;18.96;100.00;99739.66;5073052;28;20042;-76
2021/09/08 08:06:16;;;;;;;9.07;3.17;;;;;;;19.27;100.00;99736.09;5064581;28;20044;-76
2021/09/08 08:09:19;;;;;;;11.55;3.42;;;;;;;19.60;100.00;99746.06;5071760;28;20193;-76
2021/09/08 08:12:22;;;;;;;7.82;2.75;;;;;;;19.70;100.00;99732.28;5072179;28;20107;-76
2021/09/08 08:15:25;;;;;;;7.13;2.10;;;;;;;19.36;100.00;99744.16;5059596;28;20055;-77
2021/09/08 08:18:28;;;;;;;7.47;2.65;;;;;;;18.94;100.00;99742.25;5071965;28;20470;-76
2021/09/08 08:21:32;;;;;;;7.25;2.33;;;;;;;19.30;100.00;99746.28;5071609;28;20158;-76
2021/09/08 08:24:35;;;;;;;6.50;2.67;;;;;;;19.17;100.00;99751.88;5072120;28;20059;-76
2021/09/08 08:27:38;;;;;;;7.47;2.33;;;;;;;19.11;100.00;99756.88;5071880;28;20056;-76
2021/09/08 08:30:42;;;;;;;11.45;3.60;;;;;;;19.22;100.00;99750.28;5071778;28;20058;-76
2021/09/08 08:33:48;;;;;;;7.32;3.20;;;;;;;19.95;100.00;99748.50;5048593;28;20597;-76
2021/09/08 08:36:51;;;;;;;13.60;3.47;;;;;;;20.32;100.00;99730.56;5039273;28;20570;-76
2021/09/08 08:39:54;;;;;;;8.10;1.75;;;;;;;20.25;100.00;99742.53;5048368;28;20091;-76
2021/09/08 08:43:00;;;;;;;4.90;2.13;;;;;;;20.78;100.00;99738.31;5040228;28;20055;-74
2021/09/08 08:46:03;;;;;;;7.05;3.03;;;;;;;21.08;100.00;99732.97;5052843;28;20099;-75
2021/09/08 08:49:06;;;;;;;5.57;2.30;;;;;;;21.28;100.00;99727.88;5052588;28;20111;-74
2021/09/08 08:52:09;;;;;;;10.00;3.50;;;;;;;21.42;100.00;99715.16;5040068;28;20179;-76
2021/09/08 08:55:12;;;;;;;8.07;2.35;;;;;;;21.69;100.00;99705.16;5052214;28;20068;-77
2021/09/08 08:58:15;;;;;;;5.43;1.10;;;;;;;21.91;100.00;99703.81;5052209;28;20047;-76
2021/09/08 09:01:22;;;;;;;5.78;1.95;;;;;;;22.05;100.00;99703.16;5050691;28;20532;-74
2021/09/08 09:04:25;;;;;;;8.88;2.15;;;;;;;22.17;100.00;99690.19;5071567;28;20051;-74
2021/09/08 09:07:36;;;;;;;8.63;2.90;;;;;;;22.67;100.00;99693.59;5071367;28;20051;-74
2021/09/08 09:10:39;;;;;;;;;;;;;;;22.90;100.00;99683.81;5072217;28;20188;-74
2021/09/08 09:13:42;;;;;;;4.90;1.23;;;;;;;21.95;100.00;99682.31;5072082;28;19966;-77
2021/09/08 09:16:46;;;;;;;6.80;1.90;;;;;;;21.74;100.00;99701.44;5071738;28;20056;-75
2021/09/08 09:19:50;;;;;;;6.68;1.60;;;;;;;21.91;100.00;99686.81;5072394;28;20043;-81
2021/09/08 09:22:55;;;;;;;6.70;2.03;;;;;;;22.25;100.00;99693.03;5072115;28;20044;-76
2021/09/08 09:25:58;;;;;;;4.47;1.92;;;;;;;22.19;100.00;99683.94;5071718;28;20534;-76
2021/09/08 09:29:06;;;;;;;5.70;1.92;;;;;;;22.30;100.00;99677.94;5071571;28;20533;-77
2021/09/08 09:32:11;;;;;;;6.40;1.90;;;;;;;22.01;100.00;99680.06;5071842;28;20106;-77
2021/09/08 09:35:17;;;;;;;2.83;1.10;;;;;;;22.58;100.00;99675.78;5059101;28;20051;-77
2021/09/08 09:38:20;;;;;;;3.15;1.38;;;;;;;23.52;100.00;99671.91;5071206;28;20174;-77
2021/09/08 09:41:25;;;;;;;4.20;2.13;;;;;;;22.94;100.00;99660.72;5071198;28;20047;-77
2021/09/08 09:44:32;;;;;;;9.68;1.33;;;;;;;24.10;100.00;99665.94;5071235;28;20462;-78
2021/09/08 09:47:39;;;;;;;4.70;0.77;;;;;;;23.41;100.00;99655.28;5071490;28;20046;-78
2021/09/08 09:50:46;;;;;;;8.40;1.33;;;;;;;23.38;100.00;99658.47;5073926;28;20097;-78
2021/09/08 09:53:50;;;;;;;3.42;1.33;;;;;;;23.27;100.00;99654.69;5080902;28;20123;-79
2021/09/08 09:56:54;;;;;;;3.42;1.15;;;;;;;23.54;100.00;99654.31;5070248;28;20127;-80
2021/09/08 09:59:58;;;;;;;5.65;1.83;;;;;;;23.69;100.00;99657.88;5070348;28;20085;-79
2021/09/08 10:03:02;;;;;;;1.77;0.77;;;;;;;23.57;100.00;99653.91;5051017;28;20462;-78
2021/09/08 10:06:05;;;;;;;2.75;0.98;;;;;;;24.20;100.00;99645.44;5051024;28;20048;-78
2021/09/08 10:09:12;;;;;;;5.22;1.27;;;;;;;24.37;100.00;99637.00;5051147;28;20047;-78
2021/09/08 10:12:19;;;;;;;1.90;0.98;;;;;;;24.46;100.00;99644.94;5039362;28;20518;-78
2021/09/08 10:15:22;;;;;;;6.63;1.60;;;;;;;24.86;100.00;99637.13;5054264;28;20052;-78
2021/09/08 10:18:27;;;;;;;4.68;0.98;;;;;;;24.75;100.00;99634.72;5063392;28;20071;-80
2021/09/08 10:21:31;;;;;;;1.85;0.47;;;;;;;24.87;100.00;99630.09;5094125;28;20047;-80
2021/09/08 10:24:33;;;;;;;4.00;0.95;;;;;;;25.53;100.00;99623.66;5094884;28;20063;-79
2021/09/08 10:27:38;;;;;;;2.67;1.15;;;;;;;25.77;100.00;99624.94;5094725;28;20083;-79
2021/09/08 10:30:42;;;;;;;10.88;1.67;;;;;;;25.03;100.00;99628.66;5095089;28;20522;-80
2021/09/08 10:33:45;;;;;;;3.50;1.50;;;;;;;25.20;100.00;99625.06;5095045;28;20101;-79
2021/09/08 10:36:49;;;;;;;5.93;0.90;;;;;;;25.60;100.00;99627.78;5094764;28;20062;-79
2021/09/08 10:39:54;;;;;;;6.22;1.23;;;;;;;25.30;100.00;99623.84;5095111;28;20116;-80
2021/09/08 10:43:00;;;;;;;4.72;1.25;;;;;;;25.53;100.00;99615.84;5095536;28;20063;-81
2021/09/08 10:46:05;;;;;;;5.63;1.23;;;;;;;25.52;100.00;99616.44;5095249;28;20111;-80
2021/09/08 10:49:08;;;;;;;6.97;1.67;;;;;;;25.61;100.00;99607.22;5094586;28;20044;-80
2021/09/08 10:52:33;;;;;;;5.13;2.03;;;;;;;25.55;100.00;99598.91;5095171;28;20520;-78
2021/09/08 10:55:44;;;;;;;3.85;0.93;;;;;;;25.63;100.00;99595.22;5094361;28;20047;-80
2021/09/08 10:58:55;;;;;;;4.05;1.23;;;;;;;25.79;100.00;99593.72;5094984;28;20101;-77
2021/09/08 11:01:58;;;;;;;3.88;1.50;;;;;;;25.84;100.00;99595.53;5076332;28;20517;-78
2021/09/08 11:05:01;;;;;;;4.22;0.93;;;;;;;26.04;100.00;99597.22;5074702;28;20122;-77
2021/09/08 11:08:04;;;;;;;7.55;2.40;;;;;;;26.10;100.00;99597.72;5074376;28;20090;-79
2021/09/08 11:11:12;;;;;;;3.55;1.20;;;;;;;26.75;100.00;99593.03;5077902;28;20043;-77
2021/09/08 11:14:16;;;;;;;4.63;2.15;;;;;;;26.63;100.00;99597.78;5092798;28;20082;-78
2021/09/08 11:17:23;;;;;;;4.95;1.60;;;;;;;26.47;100.00;99593.63;5076378;28;20093;-79
2021/09/08 11:20:26;;;;;;;5.05;1.15;;;;;;;26.61;100.00;99591.91;5073231;28;20063;-78
2021/09/08 11:23:30;;;;;;;3.88;1.52;;;;;;;26.55;100.00;99585.69;5073242;28;20052;-77
2021/09/08 11:26:34;;;;;;;5.45;1.55;;;;;;;26.68;100.00;99584.56;5081044;28;20051;-78
2021/09/08 11:29:38;;;;;;;5.30;1.58;;;;;;;26.90;100.00;99578.50;5084935;28;20101;-78
2021/09/08 11:32:55;;;;;;;4.20;1.77;;;;;;;26.80;100.00;99563.44;5073425;28;20055;-78
2021/09/08 11:35:59;;;;;;;4.30;1.35;;;;;;;26.76;100.00;99562.38;5073921;28;20121;-78
2021/09/08 11:39:13;;;;;;;3.83;1.08;;;;;;;27.15;100.00;99555.41;5074056;28;20413;-79
2021/09/08 11:42:15;;;;;;;4.65;1.70;;;;;;;27.28;100.00;99549.25;5074340;28;20102;-78
2021/09/08 11:45:29;;;;;;;4.82;1.55;;;;;;;27.41;100.00;99551.72;5073586;28;20044;-78
2021/09/08 11:48:32;;;;;;;3.08;1.05;;;;;;;27.32;100.00;99543.09;5073250;28;20043;-78
2021/09/08 11:51:37;;;;;;;5.30;1.23;;;;;;;26.67;100.00;99543.81;5073283;28;20114;-78
2021/09/08 11:54:47;;;;;;;8.80;1.20;;;;;;;26.50;100.00;99535.31;5073037;28;20629;-79
2021/09/08 11:57:50;;;;;;;4.28;1.52;;;;;;;26.49;100.00;99539.50;5073256;28;20521;-78
2021/09/08 12:01:13;;;;;;;2.83;1.70;;;;;;;26.83;100.00;99533.66;5073038;28;20114;-77
2021/09/08 12:04:16;;;;;;;7.28;1.77;;;;;;;26.98;100.00;99521.94;5073033;28;20047;-77
2021/09/08 12:07:28;;;;;;;7.13;1.25;;;;;;;27.47;100.00;99514.22;5072504;28;20070;-78
2021/09/08 12:10:38;;;;;;;4.00;1.60;;;;;;;27.92;100.00;99513.28;5072598;28;20063;-78
2021/09/08 12:13:41;;;;;;;2.45;1.17;;;;;;;28.18;100.00;99505.88;5072060;28;20054;-78
2021/09/08 12:16:45;;;;;;;5.22;2.17;;;;;;;28.00;100.00;99501.72;5071938;28;20106;-78
2021/09/08 12:20:03;;;;;;;8.88;1.38;;;;;;;28.71;100.00;99498.91;5072414;28;20044;-77
2021/09/08 12:23:29;;;;;;;3.55;1.10;;;;;;;28.72;100.00;99503.28;5072295;28;20097;-80
2021/09/08 12:26:40;;;;;;;5.05;1.48;;;;;;;28.73;100.00;99499.06;5072625;28;20059;-80
2021/09/08 12:29:47;;;;;;;6.63;2.17;;;;;;;28.84;100.00;99495.53;5072684;28;20500;-82
2021/09/08 12:33:07;;;;;;;6.55;2.22;;;;;;;28.21;100.00;99488.25;5072672;28;20046;-80
2021/09/08 12:36:19;;;;;;;5.60;1.48;;;;;;;27.87;100.00;99488.59;5060172;28;20070;-82
2021/09/08 12:39:22;;;;;;;4.95;2.00;;;;;;;27.67;100.00;99481.41;5072185;28;20059;-80
2021/09/08 12:42:26;;;;;;;6.53;1.15;;;;;;;27.72;100.00;99477.47;5072260;28;20504;-80
2021/09/08 12:45:30;;;;;;;6.38;1.55;;;;;;;27.60;100.00;99479.44;5072136;28;20456;-79
2021/09/08 12:48:34;;;;;;;5.20;1.55;;;;;;;27.56;100.00;99465.59;5052295;28;20588;-79
2021/09/08 12:51:38;;;;;;;3.45;1.58;;;;;;;27.57;100.00;99466.34;5050701;28;20580;-80
2021/09/08 12:54:41;;;;;;;3.35;1.15;;;;;;;27.63;100.00;99470.41;5051062;28;20059;-79
2021/09/08 12:57:45;;;;;;;7.57;1.40;;;;;;;27.77;100.00;99462.09;5039009;28;20114;-79
2021/09/08 13:00:48;;;;;;;4.45;1.27;;;;;;;27.92;100.00;99464.63;5059456;28;20115;-77
2021/09/08 13:03:51;;;;;;;4.05;1.75;;;;;;;28.12;100.00;99457.50;5071404;28;20128;-76
2021/09/08 13:06:54;;;;;;;3.03;1.05;;;;;;;28.35;100.00;99454.13;5074053;28;20108;-75
2021/09/08 13:09:58;;;;;;;4.43;1.27;;;;;;;28.67;100.00;99452.78;5069392;28;20051;-76
2021/09/08 13:13:04;;;;;;;4.78;1.13;;;;;;;28.73;100.00;99450.31;5072813;28;20078;-76
2021/09/08 13:16:08;;;;;;;5.43;1.23;;;;;;;29.07;100.00;99449.78;5071995;28;20106;-76
2021/09/08 13:19:12;;;;;;;4.43;1.00;;;;;;;29.22;100.00;99444.41;5062199;28;20048;-75
2021/09/08 13:22:15;;;;;;;2.80;1.17;;;;;;;29.23;100.00;99439.44;5075733;28;20132;-79
2021/09/08 13:25:18;;;;;;;3.42;1.17;;;;;;;29.21;100.00;99433.56;5069246;28;20047;-78
2021/09/08 13:28:21;;;;;;;3.20;1.30;;;;;;;29.20;100.00;99423.44;5058667;28;20098;-78
2021/09/08 13:31:25;;;;;;;4.22;1.10;;;;;;;29.34;100.00;99426.50;5071072;28;20052;-77
2021/09/08 13:34:28;;;;;;;2.22;1.35;;;;;;;29.47;100.00;99420.94;5068375;28;20043;-78
2021/09/08 13:37:32;;;;;;;7.82;1.65;;;;;;;29.48;100.00;99416.69;5038784;28;20056;-79
2021/09/08 13:40:35;;;;;;;3.92;0.90;;;;;;;29.91;100.00;99405.84;5052790;28;20049;-78
2021/09/08 13:43:38;;;;;;;6.32;0.88;;;;;;;29.90;100.00;99407.97;5052707;28;21770;-79
2021/09/08 13:46:43;;;;;;;5.55;1.55;;;;;;;30.12;100.00;99400.00;5052596;28;20422;-78
2021/09/08 13:49:46;;;;;;;2.78;0.95;;;;;;;30.24;100.00;99392.13;5055281;28;20529;-79
2021/09/08 13:52:49;;;;;;;2.28;0.63;;;;;;;30.15;100.00;99392.28;5087061;28;20109;-80
2021/09/08 13:55:51;;;;;;;3.60;0.50;;;;;;;30.14;100.00;99393.63;5091689;28;20082;-79
2021/09/08 13:58:54;;;;;;;2.45;0.65;;;;;;;30.24;100.00;99379.88;5092142;28;20046;-78
2021/09/08 14:01:57;;;;;;;4.32;0.90;;;;;;;30.13;100.00;99374.88;5060784;28;20055;-79
2021/09/08 14:05:00;;;;;;;1.95;0.45;;;;;;;29.83;100.00;99374.50;5059531;28;20462;-79
2021/09/08 14:08:03;;;;;;;8.35;1.08;;;;;;;29.37;100.00;99368.63;5070893;28;20417;-79
2021/09/08 14:11:12;;;;;;;2.85;0.95;;;;;;;29.22;100.00;99363.34;5075736;28;20071;-80
2021/09/08 14:14:16;;;;;;;17.27;1.77;;;;;;;29.28;100.00;99360.88;5075414;28;20055;-79